Time;durP1;ratioP1;P1;durP2;ratioP2;P2;SDS_P1;SDS_P2;PMS_P1;PMS_P2;Temp;Humidity;BMP_temperature;BMP_pressure;BME280_temperature;BME280_humidity;BME280_pressure;Samples;Min_cycle;Max_cycle;Signal;HPM_P1;HPM_P2
2023/12/18 00:01:25;;;;;;;;;23.67;23.67;;;;;8.34;80.18;102874.47;4907961;29;46615;-84
2023/12/18 00:03:50;;;;;;;;;24.00;23.00;;;;;8.14;80.26;102868.94;4907846;28;45354;-84
2023/12/18 00:06:16;;;;;;;;;22.67;20.33;;;;;8.16;80.51;102877.91;4907978;28;45407;-80
2023/12/18 00:08:41;;;;;;;;;25.33;20.33;;;;;8.12;80.21;102862.66;4906371;28;45380;-81
2023/12/18 00:11:06;;;;;;;;;24.33;21.67;;;;;8.12;79.83;102860.00;4907613;28;45397;-81
2023/12/18 00:13:32;;;;;;;;;35.00;29.67;;;;;8.17;79.86;102861.16;4907824;29;45412;-81
2023/12/18 00:15:57;;;;;;;;;23.67;20.33;;;;;8.18;80.30;102862.06;4891957;28;45337;-79
2023/12/18 00:18:23;;;;;;;;;28.00;24.67;;;;;8.23;79.99;102857.06;4886720;29;45506;-80
2023/12/18 00:20:52;;;;;;;;;29.67;26.00;;;;;8.29;80.02;102865.34;4888214;29;45506;-80
2023/12/18 00:23:17;;;;;;;;;27.67;21.67;;;;;8.30;79.66;102862.81;4872256;29;45116;-80
2023/12/18 00:25:43;;;;;;;;;27.67;23.00;;;;;8.25;79.70;102869.56;4870860;29;44845;-80
2023/12/18 00:28:11;;;;;;;;;31.33;25.00;;;;;8.28;79.88;102861.81;4887246;28;45627;-80
2023/12/18 00:30:36;;;;;;;;;27.00;22.67;;;;;8.14;79.53;102863.66;4888859;28;45005;-80
2023/12/18 00:33:02;;;;;;;;;27.33;24.67;;;;;8.11;79.69;102860.81;4872409;29;45981;-79
2023/12/18 00:35:28;;;;;;;;;28.67;25.67;;;;;8.06;79.33;102869.31;4867172;29;44918;-79
2023/12/18 00:37:59;;;;;;;;;21.00;21.00;;;;;8.23;79.37;102872.97;4866995;29;44886;-79
2023/12/18 00:40:25;;;;;;;;;24.33;21.67;;;;;7.97;79.38;102873.25;4850751;29;47672;-79
2023/12/18 00:42:50;;;;;;;;;22.33;21.33;;;;;7.99;79.56;102866.28;4852222;29;45345;-80
2023/12/18 00:45:16;;;;;;;;;29.67;24.67;;;;;8.00;79.72;102864.59;4868011;29;45349;-80
2023/12/18 00:47:42;;;;;;;;;22.33;21.33;;;;;8.01;79.51;102867.31;4869353;29;45664;-79
2023/12/18 00:50:09;;;;;;;;;21.67;21.33;;;;;8.06;79.84;102867.59;4869379;29;45009;-80
2023/12/18 00:52:36;;;;;;;;;23.33;20.67;;;;;8.02;78.87;102861.19;4852629;29;45417;-79
2023/12/18 00:55:02;;;;;;;;;18.00;16.33;;;;;7.97;79.19;102851.13;4851839;29;45502;-79
2023/12/18 00:57:28;;;;;;;;;27.00;23.67;;;;;7.95;79.39;102844.84;4870373;29;44821;-80
2023/12/18 00:59:53;;;;;;;;;18.00;16.33;;;;;7.94;79.45;102843.03;4853734;29;47226;-79
2023/12/18 01:05:40;;;;;;;;;21.67;17.67;;;;;8.07;79.16;102829.66;4869931;29;45388;-80
2023/12/18 01:08:07;;;;;;;;;24.67;22.67;;;;;8.15;79.13;102835.41;4869290;29;45427;-80
2023/12/18 01:10:34;;;;;;;;;27.00;19.00;;;;;8.13;78.92;102837.06;4868763;29;45215;-79
2023/12/18 01:12:59;;;;;;;;;27.00;22.67;;;;;7.97;78.66;102824.66;4870269;29;45264;-79
2023/12/18 01:15:24;;;;;;;;;17.33;17.00;;;;;7.93;78.74;102825.28;4848395;29;65671;-79
2023/12/18 01:17:50;;;;;;;;;23.67;21.33;;;;;7.87;78.77;102817.00;4865474;29;45459;-80
2023/12/18 01:20:15;;;;;;;;;13.00;13.00;;;;;7.82;78.84;102806.13;4866446;29;47139;-79
2023/12/18 01:22:41;;;;;;;;;26.00;23.00;;;;;7.88;79.16;102819.72;4868202;29;45360;-79
2023/12/18 01:25:07;;;;;;;;;16.33;14.00;;;;;7.80;79.17;102811.34;4851930;29;44957;-80
2023/12/18 01:27:32;;;;;;;;;25.00;22.67;;;;;7.75;78.90;102817.19;4868380;29;45391;-80
2023/12/18 01:29:57;;;;;;;;;21.33;19.33;;;;;7.78;79.19;102826.22;4850688;29;46993;-79
2023/12/18 01:32:23;;;;;;;;;20.33;18.00;;;;;7.78;79.00;102820.94;4868608;29;44909;-80
2023/12/18 01:34:48;;;;;;;;;15.33;13.33;;;;;7.72;78.64;102817.00;4868330;29;45434;-79
2023/12/18 01:37:13;;;;;;;;;17.67;17.33;;;;;7.66;78.64;102814.00;4866950;29;45602;-79
2023/12/18 01:39:39;;;;;;;;;15.67;13.67;;;;;7.66;78.75;102832.53;4867503;29;47294;-80
2023/12/18 01:42:05;;;;;;;;;20.67;20.67;;;;;7.59;79.06;102832.19;4867291;29;45503;-79
2023/12/18 01:44:30;;;;;;;;;23.00;17.67;;;;;7.56;79.07;102825.78;4851774;29;45439;-80
2023/12/18 01:46:57;;;;;;;;;21.33;17.00;;;;;7.64;79.32;102840.38;4835289;29;45482;-80
2023/12/18 01:49:24;;;;;;;;;20.67;18.00;;;;;7.58;78.81;102832.97;4848972;29;47427;-80
2023/12/18 01:51:50;;;;;;;;;22.00;17.33;;;;;7.68;79.32;102842.41;4865533;29;45794;-79
2023/12/18 01:54:19;;;;;;;;;19.00;17.00;;;;;7.70;78.86;102845.16;4867472;29;45398;-80
2023/12/18 01:56:45;;;;;;;;;22.00;21.67;;;;;7.63;78.60;102838.53;4867861;29;45408;-80
2023/12/18 01:59:13;;;;;;;;;22.33;20.33;;;;;7.70;78.61;102834.53;4850823;29;47048;-79
2023/12/18 02:01:41;;;;;;;;;18.00;18.00;;;;;7.78;78.45;102839.47;4871492;29;45386;-83
2023/12/18 02:04:07;;;;;;;;;13.67;10.00;;;;;7.74;77.92;102837.47;4850656;29;45551;-81
2023/12/18 02:06:32;;;;;;;;;16.67;14.67;;;;;7.66;77.92;102833.44;4849185;29;45373;-83
2023/12/18 02:08:58;;;;;;;;;18.67;18.67;;;;;7.60;78.33;102827.78;4849452;29;47371;-83
2023/12/18 02:11:25;;;;;;;;;22.33;20.00;;;;;7.61;78.21;102834.88;4866976;29;45480;-83
2023/12/18 02:13:51;;;;;;;;;23.67;19.00;;;;;7.63;78.50;102827.03;4849617;29;45486;-83
2023/12/18 02:16:19;;;;;;;;;23.67;20.33;;;;;7.79;78.72;102835.06;4849506;29;45502;-83
2023/12/18 02:18:46;;;;;;;;;21.00;21.00;;;;;7.68;78.52;102837.09;4849839;29;45459;-82
2023/12/18 02:21:17;;;;;;;;;28.33;18.00;;;;;7.64;78.66;102839.47;4865728;29;45409;-82
2023/12/18 02:23:42;;;;;;;;;25.67;23.33;;;;;7.60;78.76;102838.38;4834130;29;45573;-83
2023/12/18 02:26:10;;;;;;;;;22.00;18.00;;;;;7.58;78.72;102838.28;4866118;29;45409;-84
2023/12/18 02:28:35;;;;;;;;;23.67;19.33;;;;;7.56;78.68;102831.06;4850276;29;47358;-83
2023/12/18 02:31:03;;;;;;;;;18.33;16.67;;;;;7.59;78.75;102823.28;4866896;29;45309;-84
2023/12/18 02:33:28;;;;;;;;;24.67;22.00;;;;;7.54;79.06;102823.03;4866221;29;45474;-84
2023/12/18 02:35:56;;;;;;;;;24.00;20.00;;;;;7.66;79.00;102814.00;4853482;29;45525;-84
2023/12/18 02:38:22;;;;;;;;;25.67;20.00;;;;;7.51;78.82;102822.81;4847038;29;48343;-84
2023/12/18 02:41:26;;;;;;;;;23.67;17.67;;;;;7.78;78.85;102820.94;4847684;29;45976;-84
2023/12/18 02:43:54;;;;;;;;;18.67;16.67;;;;;7.60;78.98;102826.03;4865019;29;45464;-84
2023/12/18 02:46:21;;;;;;;;;23.00;19.67;;;;;7.56;78.97;102816.09;4848046;29;45745;-84
2023/12/18 02:48:46;;;;;;;;;21.00;17.67;;;;;7.58;78.97;102814.44;4863945;29;46387;-84
2023/12/18 02:51:12;;;;;;;;;18.67;17.33;;;;;7.67;78.88;102829.97;4847610;29;45544;-84
2023/12/18 02:53:37;;;;;;;;;24.67;20.67;;;;;7.69;78.68;102823.00;4864902;29;45412;-84
2023/12/18 02:56:04;;;;;;;;;19.33;18.67;;;;;7.69;78.64;102815.06;4864947;29;45362;-82
2023/12/18 02:58:29;;;;;;;;;21.33;21.00;;;;;7.72;78.62;102833.81;4849021;29;46905;-83
2023/12/18 03:00:54;;;;;;;;;28.33;25.00;;;;;7.74;78.74;102826.88;4848324;29;45591;-83
2023/12/18 03:03:20;;;;;;;;;26.33;22.33;;;;;7.67;78.35;102807.88;4849357;29;45465;-83
2023/12/18 03:05:46;;;;;;;;;22.67;21.00;;;;;7.85;78.84;102818.63;4863981;29;45545;-83
2023/12/18 03:08:12;;;;;;;;;18.67;17.00;;;;;7.66;78.42;102812.25;4863944;29;45830;-83
2023/12/18 03:10:38;;;;;;;;;21.00;17.33;;;;;7.72;78.66;102820.56;4848892;29;45481;-83
2023/12/18 03:13:04;;;;;;;;;18.00;17.00;;;;;7.60;78.98;102819.84;4866566;29;45393;-83
2023/12/18 03:15:30;;;;;;;;;22.67;21.33;;;;;7.64;78.82;102821.84;4849784;29;45494;-83
2023/12/18 03:17:55;;;;;;;;;23.67;20.67;;;;;7.67;78.78;102819.38;4852412;29;47228;-83
2023/12/18 03:20:21;;;;;;;;;20.00;20.00;;;;;7.69;78.84;102825.66;4868319;29;45948;-83
2023/12/18 03:22:46;;;;;;;;;17.33;14.00;;;;;7.71;78.81;102826.66;4868823;29;45641;-83
2023/12/18 03:25:12;;;;;;;;;18.00;17.67;;;;;7.68;78.71;102821.22;4852610;29;45409;-83
2023/12/18 03:27:41;;;;;;;;;25.67;21.67;;;;;7.65;78.54;102823.66;4852483;29;47419;-83
2023/12/18 03:30:09;;;;;;;;;22.00;19.33;;;;;7.82;78.46;102819.38;4868030;29;45451;-83
2023/12/18 03:32:35;;;;;;;;;20.67;18.00;;;;;7.57;78.88;102817.00;4852285;29;45439;-82
2023/12/18 03:35:00;;;;;;;;;29.67;21.67;;;;;7.60;78.73;102817.19;4852265;29;45560;-83
2023/12/18 03:37:25;;;;;;;;;22.33;19.67;;;;;7.63;79.03;102806.75;4851799;29;47158;-83
2023/12/18 03:39:56;;;;;;;;;20.33;20.33;;;;;7.83;78.87;102802.66;4851289;29;45380;-83
2023/12/18 03:42:22;;;;;;;;;24.00;19.00;;;;;7.68;78.60;102801.75;4849492;29;45493;-83
2023/12/18 03:44:47;;;;;;;;;23.00;21.00;;;;;7.61;78.80;102809.34;4864253;29;45368;-83
2023/12/18 03:47:12;;;;;;;;;24.33;20.33;;;;;7.66;78.59;102817.56;4851674;29;55230;-83
2023/12/18 03:49:38;;;;;;;;;24.33;22.33;;;;;7.66;78.19;102811.34;4868877;29;45417;-82
2023/12/18 03:52:03;;;;;;;;;21.33;17.33;;;;;7.65;78.14;102815.72;4851878;29;45374;-85
2023/12/18 03:54:31;;;;;;;;;22.00;17.00;;;;;7.69;78.32;102811.50;4851752;29;45462;-82
2023/12/18 03:56:56;;;;;;;;;28.00;20.67;;;;;7.57;78.12;102817.94;4850690;29;47402;-82
2023/12/18 03:59:22;;;;;;;;;29.00;24.00;;;;;7.54;78.78;102820.38;4852008;29;46102;-82
2023/12/18 04:01:49;;;;;;;;;26.33;24.00;;;;;7.55;78.48;102821.28;4851848;29;45468;-82
2023/12/18 04:04:18;;;;;;;;;22.67;21.00;;;;;7.55;78.70;102824.88;4867932;29;45400;-82
2023/12/18 04:06:44;;;;;;;;;26.00;20.67;;;;;7.64;79.06;102821.84;4850680;29;47484;-83
2023/12/18 04:09:10;;;;;;;;;23.00;20.67;;;;;7.53;78.97;102825.56;4850462;29;45529;-82
2023/12/18 04:11:35;;;;;;;;;21.67;21.00;;;;;7.49;78.80;102812.97;4867831;29;45353;-83
2023/12/18 04:14:02;;;;;;;;;23.67;19.33;;;;;7.48;78.95;102811.16;4850980;29;45323;-83
2023/12/18 04:16:28;;;;;;;;;25.33;20.00;;;;;7.46;78.92;102824.31;4850039;29;48093;-83
2023/12/18 04:18:54;;;;;;;;;15.33;15.33;;;;;7.47;79.42;102819.91;4869248;29;45553;-83
2023/12/18 04:21:21;;;;;;;;;22.67;22.67;;;;;7.50;79.18;102812.19;4886137;29;45901;-83
2023/12/18 04:23:46;;;;;;;;;21.00;18.67;;;;;7.55;78.79;102823.94;4869266;29;45536;-83
2023/12/18 04:26:11;;;;;;;;;19.00;17.67;;;;;7.50;78.99;102820.13;4870133;29;46130;-84
2023/12/18 04:28:37;;;;;;;;;22.67;19.67;;;;;7.48;78.94;102812.06;4886955;28;45495;-84
2023/12/18 04:31:05;;;;;;;;;21.67;20.00;;;;;7.67;79.15;102813.16;4870521;29;45927;-84
2023/12/18 04:33:30;;;;;;;;;15.00;14.00;;;;;7.53;78.80;102814.97;4869782;29;45406;-84
2023/12/18 04:35:55;;;;;;;;;18.67;15.33;;;;;7.59;78.50;102813.63;4884966;29;47913;-83
2023/12/18 04:38:21;;;;;;;;;18.33;13.67;;;;;7.63;78.62;102819.09;4869286;29;45408;-83
2023/12/18 04:40:46;;;;;;;;;23.33;18.00;;;;;7.54;78.68;102807.16;4886577;29;45345;-84
2023/12/18 04:43:11;;;;;;;;;20.00;16.67;;;;;7.48;78.54;102805.88;4887204;29;45599;-83
2023/12/18 04:45:37;;;;;;;;;23.33;17.67;;;;;7.45;78.52;102818.91;4870455;29;47150;-84
2023/12/18 04:48:04;;;;;;;;;17.67;15.33;;;;;7.55;78.70;102810.69;4870346;28;45442;-84
2023/12/18 04:50:29;;;;;;;;;24.00;20.00;;;;;7.47;78.85;102820.81;4886962;29;45446;-82
2023/12/18 04:52:54;;;;;;;;;9.00;3.67;;;;;7.46;78.74;102811.06;4867561;29;45849;-82
2023/12/18 04:58:42;;;;;;;;;21.00;21.00;;;;;7.48;78.75;102814.72;4887025;28;45471;-84
2023/12/18 05:01:11;;;;;;;;;20.33;17.67;;;;;7.61;78.51;102808.41;4887469;29;45405;-84
2023/12/18 05:03:37;;;;;;;;;29.00;25.67;;;;;7.52;78.41;102810.53;4871942;29;45452;-84
2023/12/18 05:06:02;;;;;;;;;17.33;17.00;;;;;7.58;77.81;102822.38;4868953;29;48285;-84
2023/12/18 05:08:28;;;;;;;;;24.33;18.67;;;;;7.58;78.04;102813.53;4870396;29;45496;-84
2023/12/18 05:10:54;;;;;;;;;23.00;17.67;;;;;7.60;77.74;102814.53;4887813;29;45742;-83
2023/12/18 05:13:20;;;;;;;;;17.67;15.33;;;;;7.58;77.79;102806.50;4870571;29;45818;-83
2023/12/18 05:15:46;;;;;;;;;20.33;16.33;;;;;7.78;77.33;102809.44;4869870;29;47023;-83
2023/12/18 05:18:19;;;;;;;;;23.67;17.67;;;;;7.65;77.45;102802.47;4888092;29;45422;-83
2023/12/18 05:20:45;;;;;;;;;20.00;18.00;;;;;7.66;77.50;102800.75;4840185;29;45898;-83
2023/12/18 05:23:13;;;;;;;;;20.67;16.00;;;;;7.81;77.15;102791.94;4852958;29;45397;-83
2023/12/18 05:25:38;;;;;;;;;22.00;15.33;;;;;7.64;77.13;102795.38;4851985;29;47614;-83
2023/12/18 05:28:04;;;;;;;;;18.33;18.00;;;;;7.59;76.73;102800.41;4851024;29;45478;-83
2023/12/18 05:30:29;;;;;;;;;21.33;19.33;;;;;7.53;77.05;102805.31;4869299;29;44916;-81
2023/12/18 05:32:55;;;;;;;;;14.00;12.67;;;;;7.45;76.50;102796.00;4869802;29;45813;-81
2023/12/18 05:35:21;;;;;;;;;21.67;17.00;;;;;7.36;77.00;102812.25;4856617;29;47438;-81
2023/12/18 05:37:46;;;;;;;;;20.33;15.33;;;;;7.23;77.41;102812.34;4871366;29;44810;-81
2023/12/18 05:40:12;;;;;;;;;21.00;18.67;;;;;7.19;77.63;102823.53;4870186;29;45505;-80
2023/12/18 05:42:37;;;;;;;;;22.50;20.00;;;;;7.17;77.75;102819.88;4869452;29;45403;-80
2023/12/18 05:45:03;;;;;;;;;17.33;14.33;;;;;7.14;77.86;102825.00;4870185;29;47146;-80
2023/12/18 05:47:28;;;;;;;;;24.67;19.33;;;;;7.14;78.16;102820.59;4871389;29;45568;-81
2023/12/18 05:49:53;;;;;;;;;24.00;17.67;;;;;7.15;78.07;102816.22;4870385;29;44824;-80
2023/12/18 05:52:19;;;;;;;;;24.67;19.33;;;;;7.14;78.49;102799.44;4870826;29;44949;-80
2023/12/18 05:54:44;;;;;;;;;19.00;17.00;;;;;7.22;78.36;102798.16;4870312;29;47146;-80
2023/12/18 05:57:10;;;;;;;;;22.33;19.67;;;;;7.21;78.15;102795.41;4885988;29;44763;-80
2023/12/18 05:59:35;;;;;;;;;21.67;19.67;;;;;7.15;78.06;102800.34;4869708;29;44825;-80
2023/12/18 06:02:00;;;;;;;;;23.33;19.00;;;;;7.14;78.18;102798.53;4886119;29;45503;-81
2023/12/18 06:04:26;;;;;;;;;24.00;22.00;;;;;7.11;78.45;102793.97;4887317;28;45540;-81
2023/12/18 06:06:51;;;;;;;;;20.33;14.00;;;;;7.24;78.24;102808.84;4886912;28;45442;-80
2023/12/18 06:09:17;;;;;;;;;18.33;18.00;;;;;7.26;77.83;102801.03;4870744;29;44831;-81
2023/12/18 06:11:42;;;;;;;;;14.67;14.67;;;;;7.22;77.95;102805.19;4887475;29;45375;-80
2023/12/18 06:14:07;;;;;;;;;21.33;18.00;;;;;7.25;77.98;102801.81;4885056;28;46705;-81
2023/12/18 06:16:33;;;;;;;;;18.33;16.67;;;;;7.34;77.78;102808.59;4885719;29;45457;-80
2023/12/18 06:18:59;;;;;;;;;17.33;16.00;;;;;7.35;77.75;102805.13;4875202;28;45452;-80
2023/12/18 06:21:25;;;;;;;;;14.67;13.67;;;;;7.38;77.49;102809.69;4905650;28;45253;-81
2023/12/18 06:23:50;;;;;;;;;18.33;17.00;;;;;7.39;77.88;102808.84;4887499;29;47319;-80
2023/12/18 06:26:16;;;;;;;;;16.00;16.00;;;;;7.45;77.53;102803.94;4888219;29;45508;-80
2023/12/18 06:28:41;;;;;;;;;17.33;15.33;;;;;7.52;77.50;102819.38;4889845;29;45498;-80
2023/12/18 06:31:07;;;;;;;;;27.67;21.33;;;;;7.56;77.11;102815.19;4889699;29;45497;-80
2023/12/18 06:33:32;;;;;;;;;21.00;18.67;;;;;7.47;76.70;102815.53;4906558;29;45598;-80
2023/12/18 06:35:57;;;;;;;;;21.00;20.67;;;;;7.37;76.64;102814.09;4906695;28;44884;-80
2023/12/18 06:38:29;;;;;;;;;24.33;20.00;;;;;7.63;76.69;102819.09;4908116;28;45001;-80
2023/12/18 06:40:55;;;;;;;;;25.00;21.00;;;;;7.48;76.69;102825.31;4907977;29;45503;-80
2023/12/18 06:43:20;;;;;;;;;18.00;16.33;;;;;7.44;76.78;102823.31;4906729;28;45959;-80
2023/12/18 06:45:47;;;;;;;;;15.33;12.33;;;;;7.58;76.71;102826.78;4905094;29;45513;-80
2023/12/18 06:48:12;;;;;;;;;20.33;17.33;;;;;7.39;76.75;102823.03;4904279;29;45461;-81
2023/12/18 06:50:37;;;;;;;;;19.00;17.33;;;;;7.34;76.61;102826.22;4904932;29;45534;-80
2023/12/18 06:53:03;;;;;;;;;26.00;24.00;;;;;7.26;76.71;102825.75;4887332;29;46921;-80
2023/12/18 06:55:31;;;;;;;;;25.00;20.00;;;;;7.33;77.16;102837.59;4911638;28;44867;-84
2023/12/18 06:57:56;;;;;;;;;25.00;18.67;;;;;7.15;77.08;102837.38;4926224;23;44919;-85
2023/12/18 07:00:22;;;;;;;;;25.33;20.67;;;;;7.22;77.81;102839.59;4878091;29;45400;-80
2023/12/18 07:02:47;;;;;;;;;16.00;16.00;;;;;6.98;77.15;102808.16;4860211;29;47235;-82
2023/12/18 07:05:16;;;;;;;;;27.33;22.00;;;;;7.03;77.37;102826.97;4887631;29;44792;-82
2023/12/18 07:07:49;;;;;;;;;21.67;17.33;;;;;7.29;77.41;102823.28;4871626;28;44857;-82
2023/12/18 07:10:15;;;;;;;;;25.00;18.00;;;;;7.19;77.03;102849.97;4870395;29;45845;-80
2023/12/18 07:12:40;;;;;;;;;16.67;16.67;;;;;7.23;77.22;102852.03;4886726;29;45392;-79
2023/12/18 07:15:06;;;;;;;;;22.67;20.67;;;;;7.26;76.82;102846.00;4870000;29;44714;-80
2023/12/18 07:17:31;;;;;;;;;20.33;20.33;;;;;7.14;76.78;102844.41;4887729;28;44960;-80
2023/12/18 07:19:57;;;;;;;;;26.00;19.33;;;;;7.27;77.00;102848.75;4889479;28;44734;-80
2023/12/18 07:22:23;;;;;;;;;21.00;17.00;;;;;7.32;76.79;102854.31;4889535;29;45373;-83
2023/12/18 07:24:48;;;;;;;;;21.33;19.33;;;;;7.33;76.85;102843.84;4886555;29;45359;-83
2023/12/18 07:27:14;;;;;;;;;16.67;16.33;;;;;7.35;76.41;102847.50;4887563;29;45352;-82
2023/12/18 07:29:40;;;;;;;;;21.00;18.00;;;;;7.36;76.51;102853.69;4874008;28;45405;-82
2023/12/18 07:32:06;;;;;;;;;19.00;16.67;;;;;7.38;76.94;102863.53;4890093;29;45578;-83
2023/12/18 07:34:31;;;;;;;;;21.00;16.33;;;;;7.33;76.46;102859.72;4887808;28;44755;-81
2023/12/18 07:36:56;;;;;;;;;24.67;21.67;;;;;7.22;76.16;102866.06;4882505;29;45415;-82
2023/12/18 07:39:22;;;;;;;;;23.67;19.00;;;;;6.95;76.07;102860.91;4888003;28;45383;-81
2023/12/18 07:41:47;;;;;;;;;20.33;18.67;;;;;6.73;76.87;102869.19;4886347;29;45512;-81
2023/12/18 07:44:13;;;;;;;;;19.00;17.00;;;;;6.65;77.73;102870.44;4884895;29;45460;-83
2023/12/18 07:46:40;;;;;;;;;22.00;20.33;;;;;6.55;77.21;102861.00;4868527;29;45502;-83
2023/12/18 07:49:06;;;;;;;;;29.00;27.33;;;;;6.61;77.50;102864.03;4868645;29;45760;-83
2023/12/18 07:51:33;;;;;;;;;21.33;19.33;;;;;6.62;76.95;102864.94;4866584;29;47222;-84
2023/12/18 07:53:58;;;;;;;;;25.33;21.00;;;;;6.54;77.09;102867.06;4888270;28;45228;-84
2023/12/18 07:56:24;;;;;;;;;20.00;18.00;;;;;6.56;76.97;102869.81;4870569;29;45408;-83
2023/12/18 07:58:51;;;;;;;;;23.67;21.00;;;;;6.56;77.34;102864.53;4868905;29;45403;-84
2023/12/18 08:01:18;;;;;;;;;17.67;13.33;;;;;6.57;76.80;102869.03;4883881;29;45704;-84
2023/12/18 08:03:43;;;;;;;;;20.67;16.33;;;;;6.63;76.65;102873.81;4887821;29;45488;-83
2023/12/18 08:16:41;;;;;;;;;19.33;17.33;;;;;5.86;76.44;102823.78;4796252;29;45453;-82
2023/12/18 08:19:08;;;;;;;;;21.00;18.33;;;;;5.91;76.24;102839.16;4795387;29;45418;-81
2023/12/18 08:21:36;;;;;;;;;18.67;16.33;;;;;5.85;76.65;102829.91;4781317;29;45862;-82
2023/12/18 08:24:04;;;;;;;;;18.33;18.00;;;;;6.16;76.51;102862.88;4781977;29;47196;-82
2023/12/18 08:26:29;;;;;;;;;17.00;14.33;;;;;5.95;76.63;102857.06;4781038;29;44824;-83
2023/12/18 08:29:23;;;;;;;;;;;;;;;;;;;;;
2023/12/18 08:31:49;;;;;;;;;11.00;9.00;;;;;5.79;76.55;102815.47;4793701;29;66438;-83
2023/12/18 08:34:14;;;;;;;;;20.33;16.00;;;;;6.19;77.16;102873.63;4798099;29;45326;-80
2023/12/18 08:36:40;;;;;;;;;26.00;22.67;;;;;6.06;77.26;102846.28;4780076;29;45541;-82
2023/12/18 08:39:08;;;;;;;;;1.67;0.00;;;;;6.21;76.90;102861.44;4797515;29;45455;-81
2023/12/18 08:41:38;;;;;;;;;19.67;19.67;;;;;6.26;76.92;102867.03;4798632;29;45488;-82
2023/12/18 08:44:12;;;;;;;;;18.67;17.33;;;;;6.27;76.57;102852.09;4860917;28;47179;-83
2023/12/18 08:46:39;;;;;;;;;13.67;13.67;;;;;6.45;76.28;102861.22;4876154;29;45979;-81
2023/12/18 08:49:12;;;;;;;;;20.67;19.00;;;;;6.25;75.71;102829.94;4872789;29;45407;-83
2023/12/18 08:51:50;;;;;;;;;21.67;19.00;;;;;6.48;75.89;102839.34;4876749;29;44947;-82
2023/12/18 08:54:15;;;;;;;;;20.00;20.00;;;;;6.64;75.62;102868.59;4877657;28;47240;-82
2023/12/18 08:56:41;;;;;;;;;19.67;16.67;;;;;6.70;75.50;102863.69;4875744;29;44997;-81
2023/12/18 08:59:06;;;;;;;;;22.00;17.67;;;;;6.63;75.20;102844.72;4876986;29;45481;-81
2023/12/18 09:01:39;;;;;;;;;19.67;14.33;;;;;6.84;75.41;102848.72;4875070;29;44979;-82
2023/12/18 09:04:06;;;;;;;;;16.67;16.67;;;;;6.82;75.24;102863.56;4873695;29;46855;-82
2023/12/18 09:10:16;;;;;;;;;;;;;;;;;;;;;
2023/12/18 09:12:59;;;;;;;;;26.67;22.00;;;;;6.82;74.76;102806.28;4892043;29;65144;-83
2023/12/18 09:15:28;;;;;;;;;22.33;22.33;;;;;6.82;74.75;102800.09;4875125;28;45593;-82
2023/12/18 09:17:53;;;;;;;;;24.00;21.00;;;;;6.71;74.36;102811.75;4874352;29;45432;-81
2023/12/18 09:20:22;;;;;;;;;19.67;13.33;;;;;6.78;74.54;102798.97;4891025;29;44888;-79
2023/12/18 09:22:52;;;;;;;;;17.00;16.00;;;;;6.86;74.01;102848.81;4890978;29;45344;-81
2023/12/18 09:25:17;;;;;;;;;19.33;18.67;;;;;6.77;73.43;102822.72;4872044;29;47998;-81
2023/12/18 09:27:46;;;;;;;;;18.67;16.00;;;;;6.74;73.23;102809.28;4872690;29;45450;-81
2023/12/18 09:30:44;;;;;;;;;17.33;17.33;;;;;7.23;73.43;102865.28;4871962;29;45408;-82
2023/12/18 09:33:16;;;;;;;;;17.67;16.00;;;;;7.07;73.00;102831.66;4872253;28;44855;-81
2023/12/18 09:35:44;;;;;;;;;20.00;18.33;;;;;7.05;72.77;102854.44;4890608;29;45585;-81
2023/12/18 09:38:10;;;;;;;;;19.67;17.67;;;;;6.90;72.69;102821.75;4872770;29;45140;-81
2023/12/18 09:40:48;;;;;;;;;29.33;21.33;;;;;7.29;72.55;102847.13;4873062;29;45385;-82
2023/12/18 09:45:56;;;;;;;;;21.67;15.00;;;;;7.01;72.33;102842.75;4450407;23;45296;-81
2023/12/18 09:51:32;;;;;;;;;16.67;13.00;;;;;7.13;72.33;102844.31;4421152;23;46595;-83
2023/12/18 09:54:01;;;;;;;;;27.33;22.33;;;;;6.94;72.72;102827.31;4862012;29;45507;-84
2023/12/18 09:56:27;;;;;;;;;31.00;28.67;;;;;7.08;72.51;102866.94;4871033;29;47122;-82
2023/12/18 09:58:59;;;;;;;;;21.33;20.67;;;;;7.03;72.80;102823.41;4889330;29;45475;-83
2023/12/18 10:01:28;;;;;;;;;18.00;17.00;;;;;7.28;71.89;102869.09;4874277;29;45519;-83
2023/12/18 10:03:54;;;;;;;;;30.00;20.00;;;;;7.12;72.38;102863.69;4875359;29;45523;-84
2023/12/18 10:06:42;;;;;;;;;23.00;21.00;;;;;7.15;71.65;102869.13;4903324;29;46950;-83
2023/12/18 10:09:40;;;;;;;;;27.67;24.00;;;;;7.34;71.85;102877.41;4886923;29;44933;-83
2023/12/18 10:12:20;;;;;;;;;21.00;20.00;;;;;7.28;72.06;102870.84;4903598;29;44872;-83
2023/12/18 10:14:55;;;;;;;;;19.33;17.67;;;;;7.01;72.66;102829.53;4897407;28;45121;-84
2023/12/18 10:17:25;;;;;;;;;21.00;20.67;;;;;7.21;72.54;102845.69;4882996;29;45120;-84
2023/12/18 10:19:54;;;;;;;;;19.00;18.33;;;;;7.13;72.11;102817.84;4885254;29;45359;-84
2023/12/18 10:22:26;;;;;;;;;16.67;16.00;;;;;6.94;72.30;102815.81;4897469;29;45471;-85
2023/12/18 10:24:57;;;;;;;;;19.67;15.33;;;;;6.87;71.68;102793.38;4891254;29;44904;-85
2023/12/18 10:30:47;;;;;;;;;28.33;20.00;;;;;7.21;71.90;102840.41;4906196;29;44855;-84
2023/12/18 10:33:13;;;;;;;;;21.00;17.33;;;;;7.23;72.15;102862.63;4862576;29;44891;-84
2023/12/18 10:35:48;;;;;;;;;22.33;19.00;;;;;7.23;71.79;102820.28;4851784;29;44805;-84
2023/12/18 10:38:46;;;;;;;;;21.00;18.00;;;;;7.35;71.71;102846.56;4874177;29;45793;-84
2023/12/18 10:44:47;;;;;;;;;18.00;16.00;;;;;7.24;71.59;102806.22;4870647;29;45546;-84
2023/12/18 10:47:16;;;;;;;;;26.67;20.00;;;;;7.13;71.10;102825.78;4856114;29;45330;-84
2023/12/18 10:49:53;;;;;;;;;24.00;17.33;;;;;7.33;71.62;102835.91;4858333;29;47004;-85
2023/12/18 10:52:37;;;;;;;;;18.33;13.67;;;;;7.40;71.34;102861.91;4860019;29;45348;-84
2023/12/18 10:55:15;;;;;;;;;;;;;;;;;;;;;
2023/12/18 10:57:52;;;;;;;;;22.00;18.33;;;;;7.43;71.05;102849.69;4879603;29;64968;-84
2023/12/18 11:00:19;;;;;;;;;23.67;17.67;;;;;7.30;70.97;102843.63;4845084;29;47207;-84
2023/12/18 11:02:45;;;;;;;;;19.67;14.33;;;;;7.03;70.77;102816.41;4876347;29;45293;-81
2023/12/18 11:07:59;;;;;;;;;17.67;16.33;;;;;7.15;70.68;102832.09;4914885;23;46516;-82
2023/12/18 11:18:51;;;;;;;;;23.33;21.33;;;;;6.86;70.15;102832.94;5355851;23;46355;-86
2023/12/18 11:21:17;;;;;;;;;20.33;20.33;;;;;6.79;70.43;102848.44;4870990;28;47496;-84
2023/12/18 11:23:45;;;;;;;;;26.00;18.67;;;;;6.81;70.41;102840.59;4893091;29;45439;-84
2023/12/18 11:26:18;;;;;;;;;27.33;18.00;;;;;6.91;70.51;102815.66;4874964;29;44981;-84
2023/12/18 11:28:54;;;;;;;;;25.33;20.00;;;;;7.12;70.09;102863.69;4876541;28;45563;-83
2023/12/18 11:31:27;;;;;;;;;22.00;18.00;;;;;7.29;69.97;102868.28;4876358;28;46999;-83
2023/12/18 11:34:10;;;;;;;;;16.67;14.67;;;;;7.33;69.49;102865.00;4875971;28;45386;-85
2023/12/18 11:36:35;;;;;;;;;14.00;14.00;;;;;6.95;69.45;102822.94;5081560;23;45029;-83
2023/12/18 11:39:13;;;;;;;;;17.00;16.00;;;;;7.01;70.00;102816.31;4891406;29;45515;-82
2023/12/18 11:41:49;;;;;;;;;21.00;17.67;;;;;7.10;70.11;102815.03;4894773;29;45369;-84
2023/12/18 11:44:21;;;;;;;;;16.67;16.00;;;;;7.29;69.46;102819.72;4877183;29;45712;-81
2023/12/18 11:50:26;;;;;;;;;15.67;13.67;;;;;7.41;69.94;102825.75;4893306;29;44794;-83
2023/12/18 11:52:56;;;;;;;;;12.00;10.67;;;;;7.23;70.41;102785.88;4892608;29;47792;-82
2023/12/18 12:50:34;;;;;;;;;13.67;12.00;;;;;8.03;69.80;102716.34;4901910;28;45557;-82
2023/12/18 12:53:14;;;;;;;;;16.00;12.00;;;;;7.99;70.15;102695.81;5128769;23;45813;-84
2023/12/18 12:55:40;;;;;;;;;13.67;13.00;;;;;8.00;70.21;102711.81;4888741;28;45264;-83
2023/12/18 13:01:01;;;;;;;;;14.33;11.33;;;;;8.14;69.55;102686.06;5028286;23;46925;-85
2023/12/18 13:03:55;;;;;;;;;18.00;12.67;;;;;8.02;69.43;102690.69;4900758;28;46132;-86
2023/12/18 13:06:39;;;;;;;;;;;;;;;;;;;;;
2023/12/18 13:09:09;;;;;;;;;12.33;8.67;;;;;8.12;70.21;102634.72;4854668;29;63249;-87
2023/12/18 13:12:15;;;;;;;;;13.00;10.33;;;;;8.53;69.39;102691.75;4837800;29;47019;-89